sensor_id;sensor_type;location;lat;lon;timestamp;P1;durP1;ratioP1;P2;durP2;ratioP2
34657;SDS011;20865;43.312;27.152;2022-09-16T00:00:43;13.48;;;2.80;;
34657;SDS011;20865;43.312;27.152;2022-09-16T00:03:12;13.88;;;2.98;;
34657;SDS011;20865;43.312;27.152;2022-09-16T00:05:41;13.05;;;2.87;;
34657;SDS011;20865;43.312;27.152;2022-09-16T00:08:10;21.02;;;4.08;;
34657;SDS011;20865;43.312;27.152;2022-09-16T00:10:39;12.45;;;3.20;;
34657;SDS011;20865;43.312;27.152;2022-09-16T00:13:08;6.17;;;2.95;;
34657;SDS011;20865;43.312;27.152;2022-09-16T00:15:40;8.53;;;2.87;;
34657;SDS011;20865;43.312;27.152;2022-09-16T00:18:10;8.68;;;2.50;;
34657;SDS011;20865;43.312;27.152;2022-09-16T00:20:49;9.03;;;2.95;;
34657;SDS011;20865;43.312;27.152;2022-09-16T00:23:13;12.30;;;3.00;;
34657;SDS011;20865;43.312;27.152;2022-09-16T00:25:41;8.20;;;2.95;;
34657;SDS011;20865;43.312;27.152;2022-09-16T00:28:08;8.83;;;2.67;;
34657;SDS011;20865;43.312;27.152;2022-09-16T00:30:36;13.00;;;3.12;;
34657;SDS011;20865;43.312;27.152;2022-09-16T00:33:03;9.13;;;3.40;;
34657;SDS011;20865;43.312;27.152;2022-09-16T00:35:31;9.80;;;2.95;;
34657;SDS011;20865;43.312;27.152;2022-09-16T00:37:59;5.45;;;2.77;;
34657;SDS011;20865;43.312;27.152;2022-09-16T00:40:26;10.15;;;2.67;;
34657;SDS011;20865;43.312;27.152;2022-09-16T00:42:54;19.23;;;3.50;;
34657;SDS011;20865;43.312;27.152;2022-09-16T00:45:22;18.60;;;3.30;;
34657;SDS011;20865;43.312;27.152;2022-09-16T00:47:58;14.10;;;3.10;;
34657;SDS011;20865;43.312;27.152;2022-09-16T00:53:01;15.48;;;3.05;;
34657;SDS011;20865;43.312;27.152;2022-09-16T00:55:31;8.60;;;2.87;;
34657;SDS011;20865;43.312;27.152;2022-09-16T00:58:05;16.67;;;3.40;;
34657;SDS011;20865;43.312;27.152;2022-09-16T01:00:33;10.82;;;3.05;;
34657;SDS011;20865;43.312;27.152;2022-09-16T01:03:02;12.10;;;3.35;;
34657;SDS011;20865;43.312;27.152;2022-09-16T01:05:31;14.80;;;3.55;;
34657;SDS011;20865;43.312;27.152;2022-09-16T01:07:59;14.47;;;3.95;;
34657;SDS011;20865;43.312;27.152;2022-09-16T01:10:27;16.82;;;3.67;;
34657;SDS011;20865;43.312;27.152;2022-09-16T01:12:57;13.50;;;3.47;;
34657;SDS011;20865;43.312;27.152;2022-09-16T01:15:38;9.55;;;3.50;;
34657;SDS011;20865;43.312;27.152;2022-09-16T01:26:58;10.45;;;3.37;;
34657;SDS011;20865;43.312;27.152;2022-09-16T01:35:28;9.00;;;3.62;;
34657;SDS011;20865;43.312;27.152;2022-09-16T01:43:50;9.00;;;3.10;;
34657;SDS011;20865;43.312;27.152;2022-09-16T01:46:26;8.50;;;3.60;;
34657;SDS011;20865;43.312;27.152;2022-09-16T01:48:59;14.78;;;3.25;;
34657;SDS011;20865;43.312;27.152;2022-09-16T01:54:02;7.85;;;3.30;;
34657;SDS011;20865;43.312;27.152;2022-09-16T01:56:41;6.70;;;2.67;;
34657;SDS011;20865;43.312;27.152;2022-09-16T01:59:15;7.05;;;3.10;;
34657;SDS011;20865;43.312;27.152;2022-09-16T02:01:54;16.80;;;2.70;;
34657;SDS011;20865;43.312;27.152;2022-09-16T02:04:43;10.45;;;3.10;;
34657;SDS011;20865;43.312;27.152;2022-09-16T02:07:12;12.45;;;2.95;;
34657;SDS011;20865;43.312;27.152;2022-09-16T02:09:54;11.68;;;3.30;;
34657;SDS011;20865;43.312;27.152;2022-09-16T02:12:14;8.43;;;3.50;;
34657;SDS011;20865;43.312;27.152;2022-09-16T02:14:46;7.03;;;3.30;;
34657;SDS011;20865;43.312;27.152;2022-09-16T02:17:18;13.98;;;3.00;;
34657;SDS011;20865;43.312;27.152;2022-09-16T02:19:52;8.75;;;3.22;;
34657;SDS011;20865;43.312;27.152;2022-09-16T02:22:26;7.87;;;3.60;;
34657;SDS011;20865;43.312;27.152;2022-09-16T02:24:55;7.78;;;2.87;;
34657;SDS011;20865;43.312;27.152;2022-09-16T02:27:25;16.32;;;3.40;;
34657;SDS011;20865;43.312;27.152;2022-09-16T02:30:02;12.90;;;3.33;;
34657;SDS011;20865;43.312;27.152;2022-09-16T02:32:31;15.17;;;3.23;;
34657;SDS011;20865;43.312;27.152;2022-09-16T02:35:01;12.95;;;3.47;;
34657;SDS011;20865;43.312;27.152;2022-09-16T02:37:35;13.53;;;3.02;;
34657;SDS011;20865;43.312;27.152;2022-09-16T02:40:06;14.13;;;4.22;;
34657;SDS011;20865;43.312;27.152;2022-09-16T02:42:35;20.20;;;4.30;;
34657;SDS011;20865;43.312;27.152;2022-09-16T02:45:03;11.35;;;3.27;;
34657;SDS011;20865;43.312;27.152;2022-09-16T02:47:32;10.10;;;3.47;;
34657;SDS011;20865;43.312;27.152;2022-09-16T02:50:13;14.35;;;3.55;;
34657;SDS011;20865;43.312;27.152;2022-09-16T02:55:34;8.33;;;3.08;;
34657;SDS011;20865;43.312;27.152;2022-09-16T02:58:18;13.60;;;3.33;;
34657;SDS011;20865;43.312;27.152;2022-09-16T03:00:47;13.93;;;3.50;;
34657;SDS011;20865;43.312;27.152;2022-09-16T03:03:17;17.98;;;3.33;;
34657;SDS011;20865;43.312;27.152;2022-09-16T03:08:31;9.03;;;3.33;;
34657;SDS011;20865;43.312;27.152;2022-09-16T03:11:08;12.33;;;3.50;;
34657;SDS011;20865;43.312;27.152;2022-09-16T03:13:53;9.13;;;3.85;;
34657;SDS011;20865;43.312;27.152;2022-09-16T03:24:39;12.83;;;3.63;;
34657;SDS011;20865;43.312;27.152;2022-09-16T03:27:19;14.90;;;4.50;;
34657;SDS011;20865;43.312;27.152;2022-09-16T03:29:50;17.10;;;4.15;;
34657;SDS011;20865;43.312;27.152;2022-09-16T03:32:22;13.62;;;4.42;;
34657;SDS011;20865;43.312;27.152;2022-09-16T03:34:57;20.05;;;5.10;;
34657;SDS011;20865;43.312;27.152;2022-09-16T03:37:28;13.03;;;4.58;;
34657;SDS011;20865;43.312;27.152;2022-09-16T03:40:03;12.95;;;4.40;;
34657;SDS011;20865;43.312;27.152;2022-09-16T03:42:37;16.73;;;4.22;;
34657;SDS011;20865;43.312;27.152;2022-09-16T03:45:06;9.65;;;3.92;;
34657;SDS011;20865;43.312;27.152;2022-09-16T03:47:36;12.10;;;3.90;;
34657;SDS011;20865;43.312;27.152;2022-09-16T03:50:04;13.18;;;4.65;;
34657;SDS011;20865;43.312;27.152;2022-09-16T03:52:32;10.28;;;4.40;;
34657;SDS011;20865;43.312;27.152;2022-09-16T03:54:59;11.45;;;4.90;;
34657;SDS011;20865;43.312;27.152;2022-09-16T03:57:27;16.75;;;4.85;;
34657;SDS011;20865;43.312;27.152;2022-09-16T03:59:55;18.15;;;5.17;;
34657;SDS011;20865;43.312;27.152;2022-09-16T04:02:22;16.27;;;5.15;;
34657;SDS011;20865;43.312;27.152;2022-09-16T04:04:50;12.98;;;4.60;;
34657;SDS011;20865;43.312;27.152;2022-09-16T04:07:18;8.43;;;4.33;;
34657;SDS011;20865;43.312;27.152;2022-09-16T04:09:45;11.83;;;4.47;;
34657;SDS011;20865;43.312;27.152;2022-09-16T04:12:13;12.35;;;4.20;;
34657;SDS011;20865;43.312;27.152;2022-09-16T04:14:40;17.42;;;4.72;;
34657;SDS011;20865;43.312;27.152;2022-09-16T04:17:08;14.07;;;4.85;;
34657;SDS011;20865;43.312;27.152;2022-09-16T04:19:35;12.15;;;4.58;;
34657;SDS011;20865;43.312;27.152;2022-09-16T04:22:03;15.45;;;4.50;;
34657;SDS011;20865;43.312;27.152;2022-09-16T04:24:30;15.45;;;4.35;;
34657;SDS011;20865;43.312;27.152;2022-09-16T04:26:58;17.20;;;3.90;;
34657;SDS011;20865;43.312;27.152;2022-09-16T04:29:26;17.62;;;4.65;;
34657;SDS011;20865;43.312;27.152;2022-09-16T04:31:53;14.35;;;4.20;;
34657;SDS011;20865;43.312;27.152;2022-09-16T04:34:21;22.10;;;3.83;;
34657;SDS011;20865;43.312;27.152;2022-09-16T04:36:49;11.55;;;4.20;;
34657;SDS011;20865;43.312;27.152;2022-09-16T04:39:17;13.28;;;4.45;;
34657;SDS011;20865;43.312;27.152;2022-09-16T04:41:44;14.40;;;3.83;;
34657;SDS011;20865;43.312;27.152;2022-09-16T04:44:12;13.35;;;4.62;;
34657;SDS011;20865;43.312;27.152;2022-09-16T04:46:39;18.17;;;6.25;;
34657;SDS011;20865;43.312;27.152;2022-09-16T04:49:07;27.42;;;5.58;;
34657;SDS011;20865;43.312;27.152;2022-09-16T04:51:37;22.40;;;5.40;;
34657;SDS011;20865;43.312;27.152;2022-09-16T04:54:05;27.35;;;5.58;;
34657;SDS011;20865;43.312;27.152;2022-09-16T04:56:33;32.23;;;6.03;;
34657;SDS011;20865;43.312;27.152;2022-09-16T04:59:01;14.90;;;6.60;;
34657;SDS011;20865;43.312;27.152;2022-09-16T05:01:32;22.95;;;7.83;;
34657;SDS011;20865;43.312;27.152;2022-09-16T05:04:02;21.50;;;6.83;;
34657;SDS011;20865;43.312;27.152;2022-09-16T05:06:37;23.35;;;7.55;;
34657;SDS011;20865;43.312;27.152;2022-09-16T05:09:02;26.25;;;6.85;;
34657;SDS011;20865;43.312;27.152;2022-09-16T05:11:31;23.45;;;6.87;;
34657;SDS011;20865;43.312;27.152;2022-09-16T05:14:03;22.37;;;7.00;;
34657;SDS011;20865;43.312;27.152;2022-09-16T05:16:32;19.25;;;7.03;;
34657;SDS011;20865;43.312;27.152;2022-09-16T05:19:00;31.35;;;7.80;;
34657;SDS011;20865;43.312;27.152;2022-09-16T05:21:31;21.87;;;7.35;;
34657;SDS011;20865;43.312;27.152;2022-09-16T05:24:03;18.05;;;6.62;;
34657;SDS011;20865;43.312;27.152;2022-09-16T05:26:33;26.85;;;6.78;;
34657;SDS011;20865;43.312;27.152;2022-09-16T05:29:05;21.17;;;6.70;;
34657;SDS011;20865;43.312;27.152;2022-09-16T05:31:34;25.23;;;6.10;;
34657;SDS011;20865;43.312;27.152;2022-09-16T05:34:05;21.57;;;6.15;;
34657;SDS011;20865;43.312;27.152;2022-09-16T05:36:34;22.42;;;6.97;;
34657;SDS011;20865;43.312;27.152;2022-09-16T05:39:06;21.93;;;6.45;;
34657;SDS011;20865;43.312;27.152;2022-09-16T05:41:34;25.57;;;11.83;;
34657;SDS011;20865;43.312;27.152;2022-09-16T05:44:01;27.50;;;7.60;;
34657;SDS011;20865;43.312;27.152;2022-09-16T05:46:31;28.95;;;8.38;;
34657;SDS011;20865;43.312;27.152;2022-09-16T05:48:59;35.95;;;9.15;;
34657;SDS011;20865;43.312;27.152;2022-09-16T05:51:28;38.88;;;8.88;;
34657;SDS011;20865;43.312;27.152;2022-09-16T05:53:57;40.73;;;7.87;;
34657;SDS011;20865;43.312;27.152;2022-09-16T05:56:26;207.50;;;14.05;;
34657;SDS011;20865;43.312;27.152;2022-09-16T05:58:57;33.98;;;5.58;;
34657;SDS011;20865;43.312;27.152;2022-09-16T06:01:29;30.77;;;6.45;;
34657;SDS011;20865;43.312;27.152;2022-09-16T06:04:02;19.12;;;4.58;;
34657;SDS011;20865;43.312;27.152;2022-09-16T06:06:36;19.87;;;5.65;;
34657;SDS011;20865;43.312;27.152;2022-09-16T06:09:06;17.10;;;5.25;;
34657;SDS011;20865;43.312;27.152;2022-09-16T06:11:36;20.23;;;4.83;;
34657;SDS011;20865;43.312;27.152;2022-09-16T06:14:06;32.60;;;5.12;;
34657;SDS011;20865;43.312;27.152;2022-09-16T06:16:34;13.72;;;5.20;;
34657;SDS011;20865;43.312;27.152;2022-09-16T06:19:04;19.77;;;5.50;;
34657;SDS011;20865;43.312;27.152;2022-09-16T06:21:35;14.47;;;4.60;;
34657;SDS011;20865;43.312;27.152;2022-09-16T06:24:04;18.17;;;4.78;;
34657;SDS011;20865;43.312;27.152;2022-09-16T06:26:34;9.90;;;4.33;;
34657;SDS011;20865;43.312;27.152;2022-09-16T06:29:03;22.48;;;5.85;;
34657;SDS011;20865;43.312;27.152;2022-09-16T06:31:32;23.55;;;4.95;;
34657;SDS011;20865;43.312;27.152;2022-09-16T06:34:01;24.23;;;5.55;;
34657;SDS011;20865;43.312;27.152;2022-09-16T06:36:36;19.92;;;6.40;;
34657;SDS011;20865;43.312;27.152;2022-09-16T06:39:04;27.95;;;6.58;;
34657;SDS011;20865;43.312;27.152;2022-09-16T06:41:32;29.52;;;6.15;;
34657;SDS011;20865;43.312;27.152;2022-09-16T06:44:00;22.62;;;6.10;;
34657;SDS011;20865;43.312;27.152;2022-09-16T06:46:28;29.23;;;7.47;;
34657;SDS011;20865;43.312;27.152;2022-09-16T06:48:56;36.05;;;6.67;;
34657;SDS011;20865;43.312;27.152;2022-09-16T06:51:28;24.67;;;5.15;;
34657;SDS011;20865;43.312;27.152;2022-09-16T06:54:00;20.20;;;5.75;;
34657;SDS011;20865;43.312;27.152;2022-09-16T06:56:30;29.67;;;5.72;;
34657;SDS011;20865;43.312;27.152;2022-09-16T06:58:59;23.45;;;5.37;;
34657;SDS011;20865;43.312;27.152;2022-09-16T07:01:27;26.93;;;4.20;;
34657;SDS011;20865;43.312;27.152;2022-09-16T07:03:56;16.60;;;3.55;;
34657;SDS011;20865;43.312;27.152;2022-09-16T07:06:27;17.17;;;3.40;;
34657;SDS011;20865;43.312;27.152;2022-09-16T07:08:55;16.80;;;4.37;;
34657;SDS011;20865;43.312;27.152;2022-09-16T07:11:22;32.00;;;4.30;;
34657;SDS011;20865;43.312;27.152;2022-09-16T07:13:51;21.57;;;3.60;;
34657;SDS011;20865;43.312;27.152;2022-09-16T07:16:20;35.38;;;4.17;;
34657;SDS011;20865;43.312;27.152;2022-09-16T07:18:52;19.57;;;3.15;;
34657;SDS011;20865;43.312;27.152;2022-09-16T07:21:22;18.15;;;3.75;;
34657;SDS011;20865;43.312;27.152;2022-09-16T07:23:53;21.60;;;3.50;;
34657;SDS011;20865;43.312;27.152;2022-09-16T07:26:23;22.15;;;4.60;;
34657;SDS011;20865;43.312;27.152;2022-09-16T07:28:53;16.15;;;3.60;;
34657;SDS011;20865;43.312;27.152;2022-09-16T07:31:22;22.10;;;3.92;;
34657;SDS011;20865;43.312;27.152;2022-09-16T07:33:52;21.25;;;4.33;;
34657;SDS011;20865;43.312;27.152;2022-09-16T07:36:22;31.48;;;3.67;;
34657;SDS011;20865;43.312;27.152;2022-09-16T07:38:52;23.85;;;3.40;;
34657;SDS011;20865;43.312;27.152;2022-09-16T07:41:24;21.60;;;3.55;;
34657;SDS011;20865;43.312;27.152;2022-09-16T07:43:58;98.58;;;7.47;;
34657;SDS011;20865;43.312;27.152;2022-09-16T07:46:23;46.25;;;5.03;;
34657;SDS011;20865;43.312;27.152;2022-09-16T07:48:52;20.85;;;3.33;;
34657;SDS011;20865;43.312;27.152;2022-09-16T07:51:22;44.08;;;5.58;;
34657;SDS011;20865;43.312;27.152;2022-09-16T07:53:54;26.02;;;3.42;;
34657;SDS011;20865;43.312;27.152;2022-09-16T07:56:27;26.37;;;4.70;;
34657;SDS011;20865;43.312;27.152;2022-09-16T07:58:57;23.47;;;3.72;;
34657;SDS011;20865;43.312;27.152;2022-09-16T08:01:24;19.73;;;2.75;;
34657;SDS011;20865;43.312;27.152;2022-09-16T08:03:52;19.50;;;3.22;;
34657;SDS011;20865;43.312;27.152;2022-09-16T08:06:23;19.30;;;3.40;;
34657;SDS011;20865;43.312;27.152;2022-09-16T08:08:54;124.35;;;8.13;;
34657;SDS011;20865;43.312;27.152;2022-09-16T08:11:25;18.35;;;3.25;;
34657;SDS011;20865;43.312;27.152;2022-09-16T08:13:53;23.70;;;3.58;;
34657;SDS011;20865;43.312;27.152;2022-09-16T08:16:21;23.95;;;3.25;;
34657;SDS011;20865;43.312;27.152;2022-09-16T08:18:49;20.43;;;3.35;;
34657;SDS011;20865;43.312;27.152;2022-09-16T08:21:20;16.62;;;3.05;;
34657;SDS011;20865;43.312;27.152;2022-09-16T08:23:49;11.90;;;3.22;;
34657;SDS011;20865;43.312;27.152;2022-09-16T08:26:18;14.63;;;2.85;;
34657;SDS011;20865;43.312;27.152;2022-09-16T08:28:46;22.40;;;3.58;;
34657;SDS011;20865;43.312;27.152;2022-09-16T08:31:15;20.82;;;3.47;;
34657;SDS011;20865;43.312;27.152;2022-09-16T08:33:43;19.55;;;3.92;;
34657;SDS011;20865;43.312;27.152;2022-09-16T08:38:47;20.82;;;3.15;;
34657;SDS011;20865;43.312;27.152;2022-09-16T08:41:25;17.12;;;3.62;;
34657;SDS011;20865;43.312;27.152;2022-09-16T08:44:00;20.85;;;3.17;;
34657;SDS011;20865;43.312;27.152;2022-09-16T08:49:16;21.33;;;3.35;;
34657;SDS011;20865;43.312;27.152;2022-09-16T08:51:45;21.02;;;3.10;;
34657;SDS011;20865;43.312;27.152;2022-09-16T08:56:54;21.10;;;3.50;;
34657;SDS011;20865;43.312;27.152;2022-09-16T08:59:24;13.05;;;2.70;;
34657;SDS011;20865;43.312;27.152;2022-09-16T09:07:31;20.12;;;3.27;;
34657;SDS011;20865;43.312;27.152;2022-09-16T09:13:42;23.55;;;3.87;;
34657;SDS011;20865;43.312;27.152;2022-09-16T09:15:50;15.70;;;2.98;;
34657;SDS011;20865;43.312;27.152;2022-09-16T09:21:29;15.50;;;3.08;;
34657;SDS011;20865;43.312;27.152;2022-09-16T09:27:07;9.43;;;2.92;;
34657;SDS011;20865;43.312;27.152;2022-09-16T09:41:09;19.07;;;3.10;;
34657;SDS011;20865;43.312;27.152;2022-09-16T09:46:16;17.95;;;2.85;;
34657;SDS011;20865;43.312;27.152;2022-09-16T09:48:52;14.13;;;3.17;;
34657;SDS011;20865;43.312;27.152;2022-09-16T09:53:56;11.68;;;3.15;;
34657;SDS011;20865;43.312;27.152;2022-09-16T09:56:36;7.92;;;2.90;;
34657;SDS011;20865;43.312;27.152;2022-09-16T10:01:44;16.67;;;2.50;;
34657;SDS011;20865;43.312;27.152;2022-09-16T10:04:15;9.33;;;2.22;;
34657;SDS011;20865;43.312;27.152;2022-09-16T10:06:43;9.20;;;2.58;;
34657;SDS011;20865;43.312;27.152;2022-09-16T10:09:11;15.23;;;2.95;;
34657;SDS011;20865;43.312;27.152;2022-09-16T10:11:50;6.25;;;2.55;;
34657;SDS011;20865;43.312;27.152;2022-09-16T10:14:49;15.63;;;3.20;;
34657;SDS011;20865;43.312;27.152;2022-09-16T10:17:04;28.00;;;4.03;;
34657;SDS011;20865;43.312;27.152;2022-09-16T10:19:28;14.40;;;2.77;;
34657;SDS011;20865;43.312;27.152;2022-09-16T10:22:08;17.42;;;3.22;;
34657;SDS011;20865;43.312;27.152;2022-09-16T10:24:38;16.42;;;2.20;;
34657;SDS011;20865;43.312;27.152;2022-09-16T10:30:02;18.67;;;3.50;;
34657;SDS011;20865;43.312;27.152;2022-09-16T10:35:27;24.90;;;3.05;;
34657;SDS011;20865;43.312;27.152;2022-09-16T10:38:06;17.07;;;3.35;;
34657;SDS011;20865;43.312;27.152;2022-09-16T10:40:37;17.65;;;3.12;;
34657;SDS011;20865;43.312;27.152;2022-09-16T10:43:13;12.60;;;2.55;;
34657;SDS011;20865;43.312;27.152;2022-09-16T10:45:43;16.80;;;2.80;;
34657;SDS011;20865;43.312;27.152;2022-09-16T10:50:52;11.38;;;3.05;;
34657;SDS011;20865;43.312;27.152;2022-09-16T10:53:26;23.73;;;2.95;;
34657;SDS011;20865;43.312;27.152;2022-09-16T10:56:02;25.75;;;3.60;;
34657;SDS011;20865;43.312;27.152;2022-09-16T10:58:31;13.65;;;2.50;;
34657;SDS011;20865;43.312;27.152;2022-09-16T11:01:05;17.65;;;3.15;;
34657;SDS011;20865;43.312;27.152;2022-09-16T11:20:18;13.88;;;2.58;;
34657;SDS011;20865;43.312;27.152;2022-09-16T11:28:22;8.40;;;2.15;;
34657;SDS011;20865;43.312;27.152;2022-09-16T11:33:27;15.03;;;3.10;;
34657;SDS011;20865;43.312;27.152;2022-09-16T11:36:32;13.93;;;2.95;;
34657;SDS011;20865;43.312;27.152;2022-09-16T11:39:11;12.90;;;2.35;;
34657;SDS011;20865;43.312;27.152;2022-09-16T11:41:38;15.85;;;3.25;;
34657;SDS011;20865;43.312;27.152;2022-09-16T11:49:44;13.62;;;2.95;;
34657;SDS011;20865;43.312;27.152;2022-09-16T11:58:01;24.15;;;3.00;;
34657;SDS011;20865;43.312;27.152;2022-09-16T12:00:39;16.30;;;2.60;;
34657;SDS011;20865;43.312;27.152;2022-09-16T12:03:20;19.70;;;3.27;;
34657;SDS011;20865;43.312;27.152;2022-09-16T12:05:47;21.70;;;3.22;;
34657;SDS011;20865;43.312;27.152;2022-09-16T12:08:14;10.38;;;2.65;;
34657;SDS011;20865;43.312;27.152;2022-09-16T12:10:54;12.23;;;2.75;;
34657;SDS011;20865;43.312;27.152;2022-09-16T12:13:33;14.47;;;2.87;;
34657;SDS011;20865;43.312;27.152;2022-09-16T12:16:28;18.90;;;3.17;;
34657;SDS011;20865;43.312;27.152;2022-09-16T12:18:43;14.83;;;2.52;;
34657;SDS011;20865;43.312;27.152;2022-09-16T12:24:46;15.48;;;2.62;;
34657;SDS011;20865;43.312;27.152;2022-09-16T12:26:42;13.32;;;2.77;;
34657;SDS011;20865;43.312;27.152;2022-09-16T12:32:07;18.98;;;3.35;;
34657;SDS011;20865;43.312;27.152;2022-09-16T12:34:47;15.05;;;3.20;;
34657;SDS011;20865;43.312;27.152;2022-09-16T12:40:11;19.10;;;3.08;;
34657;SDS011;20865;43.312;27.152;2022-09-16T12:45:26;32.42;;;3.25;;
34657;SDS011;20865;43.312;27.152;2022-09-16T12:59:04;12.33;;;2.17;;
34657;SDS011;20865;43.312;27.152;2022-09-16T13:01:40;15.10;;;2.40;;
34657;SDS011;20865;43.312;27.152;2022-09-16T13:04:13;14.40;;;2.40;;
34657;SDS011;20865;43.312;27.152;2022-09-16T13:11:55;15.18;;;2.72;;
34657;SDS011;20865;43.312;27.152;2022-09-16T13:14:26;11.85;;;3.00;;
34657;SDS011;20865;43.312;27.152;2022-09-16T13:16:52;15.85;;;2.62;;
34657;SDS011;20865;43.312;27.152;2022-09-16T13:19:26;23.10;;;3.30;;
34657;SDS011;20865;43.312;27.152;2022-09-16T13:27:33;14.95;;;2.75;;
34657;SDS011;20865;43.312;27.152;2022-09-16T13:37:53;22.05;;;3.02;;
34657;SDS011;20865;43.312;27.152;2022-09-16T13:40:23;12.47;;;2.77;;
34657;SDS011;20865;43.312;27.152;2022-09-16T13:45:38;8.20;;;2.50;;
34657;SDS011;20865;43.312;27.152;2022-09-16T13:48:17;10.95;;;2.92;;
34657;SDS011;20865;43.312;27.152;2022-09-16T13:50:56;13.70;;;3.10;;
34657;SDS011;20865;43.312;27.152;2022-09-16T13:53:31;12.28;;;2.30;;
34657;SDS011;20865;43.312;27.152;2022-09-16T13:56:05;12.28;;;2.10;;
34657;SDS011;20865;43.312;27.152;2022-09-16T14:01:31;12.18;;;2.15;;
34657;SDS011;20865;43.312;27.152;2022-09-16T14:04:06;15.18;;;2.58;;
34657;SDS011;20865;43.312;27.152;2022-09-16T14:14:46;6.62;;;2.22;;
34657;SDS011;20865;43.312;27.152;2022-09-16T14:17:16;13.10;;;2.65;;
34657;SDS011;20865;43.312;27.152;2022-09-16T14:19:45;10.25;;;2.58;;
34657;SDS011;20865;43.312;27.152;2022-09-16T14:22:17;34.67;;;3.05;;
34657;SDS011;20865;43.312;27.152;2022-09-16T14:24:47;20.20;;;2.90;;
34657;SDS011;20865;43.312;27.152;2022-09-16T14:27:25;16.05;;;2.67;;
34657;SDS011;20865;43.312;27.152;2022-09-16T14:29:58;14.33;;;1.98;;
34657;SDS011;20865;43.312;27.152;2022-09-16T14:32:28;15.68;;;2.37;;
34657;SDS011;20865;43.312;27.152;2022-09-16T14:35:00;17.00;;;2.17;;
34657;SDS011;20865;43.312;27.152;2022-09-16T14:37:31;15.48;;;2.37;;
34657;SDS011;20865;43.312;27.152;2022-09-16T14:40:03;26.80;;;3.67;;
34657;SDS011;20865;43.312;27.152;2022-09-16T14:42:43;28.45;;;3.27;;
34657;SDS011;20865;43.312;27.152;2022-09-16T14:45:13;24.75;;;3.58;;
34657;SDS011;20865;43.312;27.152;2022-09-16T14:47:42;13.32;;;2.67;;
34657;SDS011;20865;43.312;27.152;2022-09-16T14:50:12;18.42;;;2.67;;
34657;SDS011;20865;43.312;27.152;2022-09-16T14:52:45;11.83;;;2.45;;
34657;SDS011;20865;43.312;27.152;2022-09-16T14:55:18;11.78;;;2.80;;
34657;SDS011;20865;43.312;27.152;2022-09-16T14:57:45;11.25;;;2.90;;
34657;SDS011;20865;43.312;27.152;2022-09-16T15:00:14;18.55;;;3.00;;
34657;SDS011;20865;43.312;27.152;2022-09-16T15:02:47;17.90;;;3.22;;
34657;SDS011;20865;43.312;27.152;2022-09-16T15:05:20;10.60;;;2.92;;
34657;SDS011;20865;43.312;27.152;2022-09-16T15:10:38;11.28;;;2.50;;
34657;SDS011;20865;43.312;27.152;2022-09-16T15:13:11;11.68;;;2.50;;
34657;SDS011;20865;43.312;27.152;2022-09-16T15:15:36;10.45;;;3.08;;
34657;SDS011;20865;43.312;27.152;2022-09-16T15:18:11;16.73;;;2.60;;
34657;SDS011;20865;43.312;27.152;2022-09-16T15:20:41;11.65;;;2.37;;
34657;SDS011;20865;43.312;27.152;2022-09-16T15:23:23;9.98;;;2.83;;
34657;SDS011;20865;43.312;27.152;2022-09-16T15:25:55;14.98;;;2.95;;
34657;SDS011;20865;43.312;27.152;2022-09-16T15:30:53;8.90;;;2.35;;
34657;SDS011;20865;43.312;27.152;2022-09-16T15:33:40;19.48;;;3.00;;
34657;SDS011;20865;43.312;27.152;2022-09-16T15:36:03;16.80;;;2.85;;
34657;SDS011;20865;43.312;27.152;2022-09-16T15:38:32;14.43;;;2.87;;
34657;SDS011;20865;43.312;27.152;2022-09-16T15:41:04;13.78;;;2.77;;
34657;SDS011;20865;43.312;27.152;2022-09-16T15:43:36;13.32;;;3.05;;
34657;SDS011;20865;43.312;27.152;2022-09-16T15:46:19;15.43;;;3.42;;
34657;SDS011;20865;43.312;27.152;2022-09-16T15:48:50;15.95;;;3.22;;
34657;SDS011;20865;43.312;27.152;2022-09-16T15:51:35;10.88;;;2.45;;
34657;SDS011;20865;43.312;27.152;2022-09-16T15:54:14;12.78;;;3.20;;
34657;SDS011;20865;43.312;27.152;2022-09-16T15:56:48;17.15;;;2.37;;
34657;SDS011;20865;43.312;27.152;2022-09-16T15:59:25;20.77;;;3.90;;
34657;SDS011;20865;43.312;27.152;2022-09-16T16:02:05;15.05;;;2.92;;
34657;SDS011;20865;43.312;27.152;2022-09-16T16:04:46;18.70;;;3.95;;
34657;SDS011;20865;43.312;27.152;2022-09-16T16:07:36;13.75;;;2.85;;
34657;SDS011;20865;43.312;27.152;2022-09-16T16:10:14;17.12;;;3.10;;
34657;SDS011;20865;43.312;27.152;2022-09-16T16:12:44;18.32;;;3.05;;
34657;SDS011;20865;43.312;27.152;2022-09-16T16:15:14;11.80;;;3.33;;
34657;SDS011;20865;43.312;27.152;2022-09-16T16:17:44;27.77;;;4.33;;
34657;SDS011;20865;43.312;27.152;2022-09-16T16:20:14;19.50;;;3.58;;
34657;SDS011;20865;43.312;27.152;2022-09-16T16:22:44;20.08;;;3.30;;
34657;SDS011;20865;43.312;27.152;2022-09-16T16:25:12;16.57;;;3.95;;
34657;SDS011;20865;43.312;27.152;2022-09-16T16:27:39;17.17;;;3.83;;
34657;SDS011;20865;43.312;27.152;2022-09-16T16:30:07;12.63;;;4.08;;
34657;SDS011;20865;43.312;27.152;2022-09-16T16:32:35;11.85;;;3.80;;
34657;SDS011;20865;43.312;27.152;2022-09-16T16:35:06;12.63;;;3.62;;
34657;SDS011;20865;43.312;27.152;2022-09-16T16:37:34;13.75;;;3.58;;
34657;SDS011;20865;43.312;27.152;2022-09-16T16:40:03;18.95;;;3.77;;
34657;SDS011;20865;43.312;27.152;2022-09-16T16:42:32;10.35;;;3.60;;
34657;SDS011;20865;43.312;27.152;2022-09-16T16:45:00;12.05;;;3.08;;
34657;SDS011;20865;43.312;27.152;2022-09-16T16:47:28;15.23;;;3.40;;
34657;SDS011;20865;43.312;27.152;2022-09-16T16:49:55;17.85;;;3.70;;
34657;SDS011;20865;43.312;27.152;2022-09-16T16:52:24;14.65;;;3.45;;
34657;SDS011;20865;43.312;27.152;2022-09-16T16:54:51;10.88;;;3.80;;
34657;SDS011;20865;43.312;27.152;2022-09-16T16:57:19;13.35;;;3.60;;
34657;SDS011;20865;43.312;27.152;2022-09-16T16:59:47;17.40;;;3.22;;
34657;SDS011;20865;43.312;27.152;2022-09-16T17:02:14;8.78;;;3.37;;
34657;SDS011;20865;43.312;27.152;2022-09-16T17:04:42;16.23;;;4.42;;
34657;SDS011;20865;43.312;27.152;2022-09-16T17:07:10;18.57;;;4.15;;
34657;SDS011;20865;43.312;27.152;2022-09-16T17:09:37;15.68;;;3.55;;
34657;SDS011;20865;43.312;27.152;2022-09-16T17:12:05;17.42;;;3.72;;
34657;SDS011;20865;43.312;27.152;2022-09-16T17:14:33;16.50;;;3.75;;
34657;SDS011;20865;43.312;27.152;2022-09-16T17:17:01;11.25;;;3.50;;
34657;SDS011;20865;43.312;27.152;2022-09-16T17:19:29;18.77;;;3.60;;
34657;SDS011;20865;43.312;27.152;2022-09-16T17:21:57;15.48;;;3.65;;
34657;SDS011;20865;43.312;27.152;2022-09-16T17:24:24;13.32;;;3.80;;
34657;SDS011;20865;43.312;27.152;2022-09-16T17:26:52;17.95;;;4.53;;
34657;SDS011;20865;43.312;27.152;2022-09-16T17:29:20;21.37;;;4.30;;
34657;SDS011;20865;43.312;27.152;2022-09-16T17:31:47;11.85;;;3.98;;
34657;SDS011;20865;43.312;27.152;2022-09-16T17:34:15;10.20;;;3.25;;
34657;SDS011;20865;43.312;27.152;2022-09-16T17:36:43;14.98;;;3.55;;
34657;SDS011;20865;43.312;27.152;2022-09-16T17:39:13;14.58;;;3.42;;
34657;SDS011;20865;43.312;27.152;2022-09-16T17:41:43;12.82;;;3.37;;
34657;SDS011;20865;43.312;27.152;2022-09-16T17:44:13;18.87;;;4.08;;
34657;SDS011;20865;43.312;27.152;2022-09-16T17:46:41;18.75;;;4.35;;
34657;SDS011;20865;43.312;27.152;2022-09-16T17:49:13;13.15;;;3.25;;
34657;SDS011;20865;43.312;27.152;2022-09-16T17:51:43;16.70;;;3.77;;